Time;durP1;ratioP1;P1;durP2;ratioP2;P2;SDS_P1;SDS_P2;PMS_P1;PMS_P2;Temp;Humidity;BMP_temperature;BMP_pressure;BME280_temperature;BME280_humidity;BME280_pressure;Samples;Min_cycle;Max_cycle;Signal;HPM_P1;HPM_P2
2021/01/24 00:00:11;;;;;;;0.50;0.50;;;;;;;4.62;100.00;99978.55;1676844;85;21593;-82
2021/01/24 00:02:41;;;;;;;0.23;0.23;;;;;;;4.66;100.00;99982.39;1645334;86;21488;-88
2021/01/24 00:05:09;;;;;;;0.37;0.33;;;;;;;4.67;100.00;99974.58;1677451;84;21115;-82
2021/01/24 00:07:37;;;;;;;0.75;0.75;;;;;;;4.65;100.00;99974.00;1680446;85;21564;-87
2021/01/24 00:10:07;;;;;;;0.78;0.42;;;;;;;4.69;100.00;99970.24;1680462;84;21162;-88
2021/01/24 00:12:34;;;;;;;0.17;0.17;;;;;;;4.71;100.00;99964.05;1680576;85;21178;-88
2021/01/24 00:15:01;;;;;;;0.15;0.15;;;;;;;4.72;100.00;99967.02;1680396;85;21169;-82
2021/01/24 00:17:29;;;;;;;0.57;0.33;;;;;;;4.74;100.00;99958.94;1680470;85;21155;-81
2021/01/24 00:19:59;;;;;;;0.80;0.50;;;;;;;4.80;100.00;99954.93;1711358;83;21166;-87
2021/01/24 00:22:29;;;;;;;0.23;0.23;;;;;;;4.84;100.00;99956.07;1711489;83;21216;-87
2021/01/24 00:24:57;;;;;;;0.30;0.30;;;;;;;4.85;100.00;99946.89;1682189;84;21210;-88
2021/01/24 00:27:24;;;;;;;1.55;0.82;;;;;;;4.92;100.00;99943.43;1682143;85;21169;-82
2021/01/24 00:29:51;;;;;;;0.68;0.68;;;;;;;4.96;100.00;99944.56;1682177;85;21147;-87
2021/01/24 00:32:19;;;;;;;0.45;0.42;;;;;;;4.96;100.00;99941.86;1654634;86;21197;-88
2021/01/24 00:34:47;;;;;;;0.03;0.03;;;;;;;4.96;100.00;99944.02;1682248;85;21425;-82
2021/01/24 00:37:14;;;;;;;0.00;0.00;;;;;;;4.95;100.00;99936.98;1682308;84;21490;-82
2021/01/24 00:39:41;;;;;;;0.50;0.50;;;;;;;4.96;100.00;99934.55;1653078;86;21253;-82
2021/01/24 00:42:09;;;;;;;0.98;0.72;;;;;;;5.00;100.00;99934.88;1682199;85;21130;-82
2021/01/24 00:44:37;;;;;;;0.15;0.15;;;;;;;5.00;100.00;99932.16;1682160;85;21106;-82
2021/01/24 00:47:05;;;;;;;0.50;0.50;;;;;;;4.99;100.00;99931.05;1654593;86;21165;-88
2021/01/24 00:49:33;;;;;;;0.23;0.23;;;;;;;4.98;100.00;99924.02;1682057;83;21237;-88
2021/01/24 00:52:01;;;;;;;0.72;0.72;;;;;;;4.98;100.00;99930.24;1681961;85;21641;-87
2021/01/24 00:54:29;;;;;;;1.40;0.30;;;;;;;4.99;100.00;99920.22;1682139;85;21173;-87
2021/01/24 00:56:57;;;;;;;0.20;0.20;;;;;;;4.97;100.00;99934.03;1653136;86;21226;-87
2021/01/24 00:59:24;;;;;;;0.80;0.78;;;;;;;5.02;100.00;99923.77;1682223;85;21134;-81
2021/01/24 01:01:52;;;;;;;3.05;1.65;;;;;;;5.06;100.00;99914.06;1682327;85;21525;-89
2021/01/24 01:04:20;;;;;;;0.55;0.30;;;;;;;5.08;100.00;99922.76;1682259;85;21481;-82
2021/01/24 01:06:47;;;;;;;0.45;0.45;;;;;;;5.07;100.00;99908.92;1644404;86;21190;-88
2021/01/24 01:09:14;;;;;;;0.40;0.40;;;;;;;5.09;100.00;99914.36;1642729;86;21513;-88
2021/01/24 01:11:42;;;;;;;0.05;0.05;;;;;;;5.12;100.00;99911.16;1653111;86;21189;-82
2021/01/24 01:14:09;;;;;;;0.65;0.45;;;;;;;5.15;100.00;99914.70;1652950;86;21170;-89
2021/01/24 01:16:37;;;;;;;0.10;0.10;;;;;;;5.07;100.00;99917.88;1653008;86;21173;-82
2021/01/24 01:19:04;;;;;;;0.20;0.20;;;;;;;4.92;100.00;99910.42;1653142;86;21134;-82
2021/01/24 01:21:32;;;;;;;10.20;1.52;;;;;;;4.72;100.00;99904.27;1653123;86;21188;-88
2021/01/24 01:23:59;;;;;;;0.45;0.45;;;;;;;4.55;100.00;99906.74;1668076;86;21162;-82
2021/01/24 01:26:26;;;;;;;0.10;0.10;;;;;;;4.41;100.00;99917.14;1668104;85;21189;-89
2021/01/24 01:28:54;;;;;;;2.05;0.30;;;;;;;4.28;100.00;99913.74;1667938;86;21088;-82
2021/01/24 01:31:21;;;;;;;0.10;0.10;;;;;;;4.21;100.00;99922.57;1652967;86;21201;-82
2021/01/24 01:33:49;;;;;;;0.57;0.57;;;;;;;4.17;100.00;99921.97;1653008;86;21245;-88
2021/01/24 01:36:16;;;;;;;0.20;0.20;;;;;;;4.12;100.00;99927.30;1653080;86;21142;-88
2021/01/24 01:38:43;;;;;;;0.55;0.55;;;;;;;4.09;100.00;99923.22;1667980;86;21213;-82
2021/01/24 01:41:11;;;;;;;0.80;0.80;;;;;;;4.07;100.00;99926.16;1667903;84;21240;-87
2021/01/24 01:43:38;;;;;;;2.40;0.60;;;;;;;4.09;100.00;99923.22;1667923;86;21130;-82
2021/01/24 01:46:06;;;;;;;0.30;0.30;;;;;;;4.13;100.00;99918.11;1667761;84;21003;-82
2021/01/24 01:48:33;;;;;;;0.35;0.35;;;;;;;4.17;100.00;99925.48;1667906;85;21154;-88
2021/01/24 01:51:01;;;;;;;0.10;0.10;;;;;;;4.31;100.00;99921.34;1653048;86;21238;-86
2021/01/24 01:53:29;;;;;;;0.00;0.00;;;;;;;4.51;100.00;99919.97;1653100;86;21673;-87
2021/01/24 01:55:57;;;;;;;0.42;0.35;;;;;;;4.70;100.00;99915.06;1653075;86;21157;-88
2021/01/24 01:58:24;;;;;;;0.40;0.28;;;;;;;4.83;100.00;99916.55;1653140;86;21161;-88
2021/01/24 02:00:51;;;;;;;0.57;0.23;;;;;;;4.89;100.00;99908.75;1667933;84;21004;-88
2021/01/24 02:03:32;;;;;;;2.05;1.87;;;;;;;5.01;100.00;99912.66;1667929;86;21186;-82
2021/01/24 02:06:18;;;;;;;4.83;0.40;;;;;;;5.05;100.00;99921.38;1665948;85;21246;-87
2021/01/24 02:08:59;;;;;;;1.47;0.80;;;;;;;5.09;100.00;99909.48;1645224;87;21161;-82
2021/01/24 02:11:45;;;;;;;0.05;0.05;;;;;;;5.11;100.00;99908.16;1677254;85;21174;-86
2021/01/24 02:14:29;;;;;;;1.75;0.95;;;;;;;5.18;100.00;99909.31;1633417;87;21202;-82
2021/01/24 02:16:59;;;;;;;0.17;0.17;;;;;;;5.27;100.00;99902.91;1677170;85;21201;-87
2021/01/24 02:19:53;;;;;;;0.30;0.30;;;;;;;5.31;100.00;99906.70;1617632;87;21714;-82
2021/01/24 02:22:21;;;;;;;0.42;0.42;;;;;;;5.32;100.00;99908.36;1590733;89;21249;-87
2021/01/24 02:25:00;;;;;;;1.85;0.45;;;;;;;5.37;100.00;99913.28;1590740;90;21203;-87
2021/01/24 02:27:48;;;;;;;0.10;0.10;;;;;;;5.46;100.00;99904.13;1848293;75;22658;-51
2021/01/24 02:30:31;;;;;;;0.85;0.85;;;;;;;5.42;100.00;99907.63;1794508;78;21118;-50
2021/01/24 02:33:03;;;;;;;0.17;0.17;;;;;;;5.40;100.00;99906.52;1786358;80;21133;-51
2021/01/24 02:35:36;;;;;;;0.30;0.30;;;;;;;5.39;100.00;99909.78;1786182;78;21154;-51
2021/01/24 02:38:04;;;;;;;0.95;0.47;;;;;;;5.42;100.00;99904.38;1786317;80;21102;-51
2021/01/24 02:40:34;;;;;;;0.30;0.30;;;;;;;5.41;100.00;99901.37;1756104;80;21220;-52
2021/01/24 02:43:03;;;;;;;0.30;0.30;;;;;;;5.43;100.00;99901.94;1755085;80;21078;-54
2021/01/24 02:45:32;;;;;;;0.42;0.42;;;;;;;5.46;100.00;99902.77;1755922;80;21217;-51
2021/01/24 02:48:00;;;;;;;0.70;0.70;;;;;;;5.46;100.00;99902.77;1756066;80;21707;-51
2021/01/24 02:50:30;;;;;;;1.92;0.75;;;;;;;5.45;100.00;99907.11;1786050;78;21117;-51
2021/01/24 02:53:00;;;;;;;1.90;0.93;;;;;;;5.44;100.00;99896.81;1786138;80;21118;-51
2021/01/24 02:55:30;;;;;;;0.37;0.37;;;;;;;5.45;100.00;99903.86;1754367;80;21122;-51
2021/01/24 02:57:57;;;;;;;1.10;0.57;;;;;;;5.45;100.00;99893.02;1786177;80;21185;-51
2021/01/24 03:00:27;;;;;;;1.10;0.57;;;;;;;5.48;100.00;99888.97;1754913;80;21146;-51
2021/01/24 03:02:54;;;;;;;0.50;0.50;;;;;;;5.50;100.00;99899.83;1786095;80;21161;-51
2021/01/24 03:05:23;;;;;;;0.75;0.30;;;;;;;5.49;100.00;99896.85;1786024;78;21106;-50
2021/01/24 03:07:51;;;;;;;0.85;0.40;;;;;;;5.51;100.00;99897.38;1786172;80;21149;-50
2021/01/24 03:10:19;;;;;;;0.10;0.10;;;;;;;5.53;100.00;99895.23;1786014;78;21149;-51
2021/01/24 03:13:13;;;;;;;0.37;0.37;;;;;;;5.55;100.00;99891.73;1786133;80;21151;-50
2021/01/24 03:15:41;;;;;;;1.60;1.12;;;;;;;5.58;100.00;99889.85;1761626;80;21170;-50
2021/01/24 03:18:10;;;;;;;0.20;0.20;;;;;;;5.62;100.00;99897.48;1754765;80;21122;-50
2021/01/24 03:20:41;;;;;;;0.10;0.10;;;;;;;5.60;100.00;99894.48;1786136;78;21153;-51
2021/01/24 03:23:08;;;;;;;0.20;0.20;;;;;;;5.62;100.00;99880.68;1786269;80;21484;-50
2021/01/24 03:25:37;;;;;;;1.85;0.85;;;;;;;5.63;100.00;99884.20;1730978;79;21137;-50
2021/01/24 03:28:06;;;;;;;1.12;1.12;;;;;;;5.65;100.00;99880.70;1786134;80;21114;-50
2021/01/24 03:30:34;;;;;;;3.72;0.75;;;;;;;5.66;100.00;99879.61;1785947;80;21437;-50
2021/01/24 03:33:02;;;;;;;0.13;0.13;;;;;;;5.67;100.00;99870.41;1786218;80;21421;-51
2021/01/24 03:35:29;;;;;;;0.45;0.45;;;;;;;5.68;100.00;99870.68;1786029;78;21682;-51
2021/01/24 03:37:57;;;;;;;0.33;0.23;;;;;;;5.69;100.00;99869.63;1785909;80;21102;-51
2021/01/24 03:40:24;;;;;;;1.75;0.65;;;;;;;5.70;100.00;99869.88;1785506;78;21150;-50
2021/01/24 03:42:52;;;;;;;1.05;0.90;;;;;;;5.68;100.00;99863.36;1785512;80;21099;-50
2021/01/24 03:45:21;;;;;;;0.37;0.37;;;;;;;5.69;100.00;99867.72;1785359;78;21184;-50
2021/01/24 03:47:48;;;;;;;0.30;0.20;;;;;;;5.69;100.00;99874.50;1785603;80;21153;-51
2021/01/24 03:50:16;;;;;;;2.42;1.60;;;;;;;5.71;100.00;99867.44;1785519;78;21572;-51
2021/01/24 03:52:43;;;;;;;0.45;0.45;;;;;;;5.73;100.00;99862.58;1785657;80;21134;-50
2021/01/24 03:55:11;;;;;;;1.98;0.68;;;;;;;5.73;100.00;99865.29;1785556;78;21563;-50
2021/01/24 03:57:39;;;;;;;1.32;1.22;;;;;;;5.74;100.00;99854.20;1785528;80;21153;-50
2021/01/24 04:00:08;;;;;;;0.55;0.55;;;;;;;5.75;100.00;99856.36;1785521;78;21110;-50
2021/01/24 04:02:41;;;;;;;0.53;0.35;;;;;;;5.73;100.00;99858.52;1785497;80;21703;-50
2021/01/24 04:05:09;;;;;;;0.28;0.28;;;;;;;5.74;100.00;99856.09;1785493;78;21114;-50
2021/01/24 04:07:37;;;;;;;0.53;0.53;;;;;;;5.76;100.00;99856.63;1785510;80;21114;-50
2021/01/24 04:10:05;;;;;;;0.55;0.55;;;;;;;5.77;100.00;99859.09;1785407;78;21559;-51
2021/01/24 04:12:34;;;;;;;0.00;0.00;;;;;;;5.77;100.00;99856.37;1785402;80;21609;-50
2021/01/24 04:15:06;;;;;;;1.62;0.85;;;;;;;5.79;100.00;99849.34;1785417;78;21196;-50
2021/01/24 04:17:34;;;;;;;0.65;0.65;;;;;;;5.81;100.00;99858.01;1785588;80;21123;-51
2021/01/24 04:20:01;;;;;;;2.40;0.57;;;;;;;5.82;100.00;99852.88;1785471;78;21425;-51
2021/01/24 04:22:28;;;;;;;0.10;0.10;;;;;;;5.82;100.00;99855.59;1785570;80;21441;-50
2021/01/24 04:24:56;;;;;;;0.60;0.57;;;;;;;5.82;100.00;99856.41;1785535;78;21160;-50
2021/01/24 04:27:23;;;;;;;3.22;1.05;;;;;;;5.85;100.00;99850.99;1791273;79;21153;-50
2021/01/24 04:29:50;;;;;;;0.57;0.57;;;;;;;5.87;100.00;99852.09;1794615;78;21911;-50
2021/01/24 04:32:18;;;;;;;0.50;0.50;;;;;;;5.87;100.00;99856.98;1794461;79;21141;-50
2021/01/24 04:34:45;;;;;;;0.70;0.53;;;;;;;5.87;100.00;99847.48;1794446;78;21106;-50
2021/01/24 04:37:13;;;;;;;0.20;0.20;;;;;;;5.89;100.00;99853.47;1794474;79;21161;-50
2021/01/24 04:39:40;;;;;;;2.00;1.90;;;;;;;5.90;100.00;99859.70;1794385;78;21125;-50
2021/01/24 04:42:08;;;;;;;0.93;0.93;;;;;;;5.91;100.00;99859.97;1794284;79;21882;-50
2021/01/24 04:44:35;;;;;;;0.98;0.98;;;;;;;5.90;100.00;99857.80;1741764;79;21165;-50
2021/01/24 04:47:04;;;;;;;2.35;0.95;;;;;;;5.92;100.00;99861.07;1794249;79;21447;-50
2021/01/24 04:49:31;;;;;;;0.70;0.70;;;;;;;5.92;100.00;99859.72;1794347;78;21177;-50
2021/01/24 04:51:59;;;;;;;1.45;0.40;;;;;;;5.91;100.00;99859.45;1794291;79;21168;-50
2021/01/24 04:54:26;;;;;;;0.45;0.45;;;;;;;5.90;100.00;99855.09;1794458;78;21768;-50
2021/01/24 04:56:53;;;;;;;1.75;0.42;;;;;;;5.90;100.00;99856.45;1742999;79;21101;-50
2021/01/24 04:59:21;;;;;;;2.10;0.42;;;;;;;5.90;100.00;99855.63;1794336;78;21106;-50
2021/01/24 05:01:49;;;;;;;0.42;0.35;;;;;;;5.89;100.00;99848.05;1794468;79;21133;-50
2021/01/24 05:04:17;;;;;;;0.55;0.55;;;;;;;5.89;100.00;99856.18;1794529;78;21555;-51
2021/01/24 05:06:44;;;;;;;1.30;1.20;;;;;;;5.90;100.00;99856.98;1794525;79;21071;-51
2021/01/24 05:09:17;;;;;;;0.25;0.25;;;;;;;5.86;100.00;99851.80;1794384;78;21113;-51
2021/01/24 05:11:52;;;;;;;0.78;0.68;;;;;;;5.85;100.00;99849.64;1794424;79;21122;-52
2021/01/24 05:14:23;;;;;;;0.00;0.00;;;;;;;5.81;100.00;99849.36;1794354;78;21117;-51
2021/01/24 05:16:53;;;;;;;0.35;0.28;;;;;;;5.80;100.00;99858.55;1794262;79;21169;-51
2021/01/24 05:19:21;;;;;;;0.00;0.00;;;;;;;5.79;100.00;99848.80;1794325;78;21560;-51
2021/01/24 05:21:50;;;;;;;0.68;0.45;;;;;;;5.80;100.00;99855.03;1794353;79;21106;-51
2021/01/24 05:24:19;;;;;;;0.95;0.60;;;;;;;5.82;100.00;99850.98;1768198;79;21142;-51
2021/01/24 05:26:49;;;;;;;0.55;0.55;;;;;;;5.84;100.00;99853.44;1792000;79;21110;-51
2021/01/24 05:29:24;;;;;;;0.10;0.10;;;;;;;5.87;100.00;99850.20;1785350;79;21142;-51
2021/01/24 05:31:52;;;;;;;0.10;0.10;;;;;;;5.89;100.00;99846.69;1785528;80;21150;-52
2021/01/24 05:34:26;;;;;;;0.60;0.53;;;;;;;5.91;100.00;99867.59;1785488;78;21574;-51
2021/01/24 05:36:55;;;;;;;0.00;0.00;;;;;;;5.93;100.00;99859.17;1785526;80;21112;-51
2021/01/24 05:39:23;;;;;;;0.05;0.05;;;;;;;5.93;100.00;99857.81;1754246;80;21169;-51
2021/01/24 05:41:55;;;;;;;0.35;0.25;;;;;;;5.94;100.00;99849.45;1782344;78;21166;-51
2021/01/24 05:44:23;;;;;;;1.00;0.55;;;;;;;5.92;100.00;99844.80;1770504;79;21540;-51
2021/01/24 05:46:52;;;;;;;0.30;0.30;;;;;;;5.94;100.00;99854.07;1776284;80;21154;-52
2021/01/24 05:49:28;;;;;;;1.20;0.95;;;;;;;5.96;100.00;99860.86;1693052;83;21143;-51
2021/01/24 05:52:06;;;;;;;3.02;0.72;;;;;;;5.98;100.00;99862.78;1720863;83;21201;-51
2021/01/24 05:54:41;;;;;;;0.82;0.72;;;;;;;5.98;100.00;99854.64;1695258;83;21134;-52
2021/01/24 05:57:11;;;;;;;0.53;0.53;;;;;;;5.99;100.00;99867.66;1694972;84;21194;-51
2021/01/24 05:59:53;;;;;;;0.20;0.20;;;;;;;6.00;100.00;99859.23;1700430;81;21172;-50
2021/01/24 06:02:23;;;;;;;1.55;1.10;;;;;;;6.02;100.00;99862.51;1717691;83;21181;-51
2021/01/24 06:04:51;;;;;;;0.85;0.75;;;;;;;6.06;100.00;99861.97;1697846;83;21215;-50
2021/01/24 06:07:19;;;;;;;1.20;0.47;;;;;;;6.08;100.00;99855.75;1697649;84;21170;-50
2021/01/24 06:09:47;;;;;;;0.88;0.62;;;;;;;6.06;100.00;99857.91;1697758;83;21629;-51
2021/01/24 06:12:18;;;;;;;0.57;0.42;;;;;;;6.05;100.00;99846.80;1697748;84;21162;-51
2021/01/24 06:14:49;;;;;;;1.47;0.45;;;;;;;6.03;100.00;99846.53;1697496;83;21138;-51
2021/01/24 06:17:41;;;;;;;1.07;0.55;;;;;;;6.07;100.00;99852.77;1724456;82;21168;-51
2021/01/24 06:20:10;;;;;;;0.25;0.25;;;;;;;6.08;100.00;99849.78;1729765;82;21157;-51
2021/01/24 06:22:51;;;;;;;0.10;0.10;;;;;;;6.07;100.00;99854.94;1748965;80;21690;-51
2021/01/24 06:25:23;;;;;;;0.00;0.00;;;;;;;6.05;100.00;99852.22;1773791;80;21129;-51
2021/01/24 06:28:00;;;;;;;1.02;0.93;;;;;;;6.03;100.00;99849.75;1771687;80;21542;-51
2021/01/24 06:30:28;;;;;;;0.23;0.23;;;;;;;6.01;100.00;99850.59;1767542;80;21191;-51
2021/01/24 06:32:56;;;;;;;0.10;0.10;;;;;;;5.98;100.00;99851.93;1744625;80;21163;-50
2021/01/24 06:35:25;;;;;;;0.80;0.80;;;;;;;6.00;100.00;99843.52;1791509;78;21145;-51
2021/01/24 06:38:00;;;;;;;0.30;0.30;;;;;;;6.02;100.00;99848.95;1761721;81;21115;-51
2021/01/24 06:40:30;;;;;;;0.53;0.53;;;;;;;6.02;100.00;99842.16;1760245;80;21138;-51
2021/01/24 06:43:02;;;;;;;1.00;0.53;;;;;;;6.02;100.00;99847.59;1760248;81;21165;-51
2021/01/24 06:45:35;;;;;;;0.47;0.47;;;;;;;6.01;100.00;99847.33;1760260;80;21002;-51
2021/01/24 06:48:03;;;;;;;0.15;0.15;;;;;;;6.03;100.00;99849.23;1760180;81;21122;-51
2021/01/24 06:50:48;;;;;;;0.60;0.47;;;;;;;6.04;100.00;99839.20;1775427;80;21129;-51
2021/01/24 06:53:21;;;;;;;0.03;0.03;;;;;;;6.05;100.00;99846.24;1773144;80;21121;-51
2021/01/24 06:55:58;;;;;;;2.50;0.40;;;;;;;6.10;100.00;99840.84;1763168;81;21126;-52
2021/01/24 06:58:33;;;;;;;5.47;0.53;;;;;;;6.15;100.00;99853.61;1763230;80;21426;-51
2021/01/24 07:01:23;;;;;;;0.60;0.60;;;;;;;6.21;100.00;99853.93;1762757;81;21130;-50
2021/01/24 07:04:28;;;;;;;0.00;0.00;;;;;;;6.22;100.00;99849.58;1771218;80;21713;-51
2021/01/24 07:07:01;;;;;;;0.13;0.13;;;;;;;6.22;100.00;99850.13;1759016;81;21160;-51
2021/01/24 07:09:41;;;;;;;0.88;0.53;;;;;;;6.23;100.00;99850.38;1767205;80;21176;-50
2021/01/24 07:12:09;;;;;;;0.60;0.55;;;;;;;6.23;100.00;99842.25;1767086;80;21231;-50
2021/01/24 07:14:43;;;;;;;2.50;0.72;;;;;;;6.22;100.00;99844.15;1767329;80;21501;-51
2021/01/24 07:17:18;;;;;;;1.67;1.27;;;;;;;6.21;100.00;99840.36;1767261;81;21234;-51
2021/01/24 07:19:54;;;;;;;0.95;0.95;;;;;;;6.26;100.00;99839.02;1767421;81;21443;-51
2021/01/24 07:22:24;;;;;;;0.17;0.17;;;;;;;6.27;100.00;99836.58;1767458;81;21157;-50
2021/01/24 07:24:55;;;;;;;0.10;0.10;;;;;;;6.30;100.00;99840.11;1767311;81;21668;-51
2021/01/24 07:27:25;;;;;;;0.60;0.60;;;;;;;6.35;100.00;99836.59;1762429;80;21146;-51
2021/01/24 07:29:53;;;;;;;0.13;0.13;;;;;;;6.39;100.00;99842.59;1733170;81;21459;-51
2021/01/24 07:32:22;;;;;;;0.35;0.35;;;;;;;6.41;100.00;99835.00;1786719;80;21469;-51
2021/01/24 07:34:52;;;;;;;0.30;0.30;;;;;;;6.45;100.00;99833.91;1786608;78;21130;-51
2021/01/24 07:37:19;;;;;;;0.30;0.20;;;;;;;6.49;100.00;99831.50;1786591;80;21204;-50
2021/01/24 07:39:50;;;;;;;1.15;1.15;;;;;;;6.55;100.00;99838.04;1786648;78;21142;-51
2021/01/24 07:42:18;;;;;;;1.67;1.00;;;;;;;6.62;100.00;99835.05;1738208;81;21252;-51
2021/01/24 07:44:45;;;;;;;0.15;0.15;;;;;;;6.69;100.00;99831.53;1720390;83;21140;-51
2021/01/24 07:47:15;;;;;;;0.10;0.10;;;;;;;6.74;100.00;99832.09;1720467;83;21176;-51
2021/01/24 07:49:43;;;;;;;0.53;0.53;;;;;;;6.80;100.00;99829.64;1720290;83;21579;-50
2021/01/24 07:52:10;;;;;;;0.20;0.20;;;;;;;6.87;100.00;99835.11;1720102;83;21184;-50
2021/01/24 07:54:37;;;;;;;0.80;0.40;;;;;;;6.93;99.97;99828.33;1720049;83;21617;-51
2021/01/24 07:57:07;;;;;;;0.20;0.20;;;;;;;6.98;99.13;99832.41;1720005;83;21499;-50
2021/01/24 07:59:35;;;;;;;0.60;0.60;;;;;;;7.08;98.83;99833.77;1757154;81;21136;-51
2021/01/24 08:02:04;;;;;;;0.13;0.13;;;;;;;7.15;98.46;99832.95;1759491;80;21459;-51
2021/01/24 08:04:37;;;;;;;0.10;0.10;;;;;;;7.21;97.95;99825.06;1759890;80;21560;-51
2021/01/24 08:07:07;;;;;;;0.80;0.40;;;;;;;7.25;97.39;99831.59;1744945;81;21129;-51
2021/01/24 08:09:35;;;;;;;0.00;0.00;;;;;;;7.35;96.31;99828.60;1759667;81;21112;-50
2021/01/24 08:12:11;;;;;;;0.57;0.45;;;;;;;7.44;95.76;99833.73;1759614;81;21141;-50
2021/01/24 08:14:39;;;;;;;0.15;0.15;;;;;;;7.48;95.13;99835.64;1727641;81;21143;-50
2021/01/24 08:17:09;;;;;;;4.58;0.30;;;;;;;7.53;94.71;99821.23;1721732;82;21131;-50
2021/01/24 08:19:37;;;;;;;0.55;0.55;;;;;;;7.57;93.91;99814.16;1733244;82;21393;-51
2021/01/24 08:22:05;;;;;;;0.00;0.00;;;;;;;7.62;93.51;99829.11;1706527;82;21157;-50
2021/01/24 08:24:32;;;;;;;0.10;0.10;;;;;;;7.66;92.80;99813.84;1733193;82;21193;-50
2021/01/24 08:27:00;;;;;;;0.55;0.28;;;;;;;7.71;92.62;99815.19;1732978;82;21133;-50
2021/01/24 08:29:34;;;;;;;0.33;0.33;;;;;;;7.75;92.32;99819.55;1762631;80;21488;-51
2021/01/24 08:32:04;;;;;;;0.20;0.20;;;;;;;7.79;92.04;99814.36;1785770;80;21090;-50
2021/01/24 08:34:33;;;;;;;1.12;0.90;;;;;;;7.83;91.51;99810.01;1786511;78;21105;-50
2021/01/24 08:37:05;;;;;;;1.50;1.30;;;;;;;7.88;91.25;99804.55;1786500;80;21141;-50
2021/01/24 08:39:32;;;;;;;1.95;1.52;;;;;;;7.90;90.84;99792.30;1786509;78;21157;-50
2021/01/24 08:42:01;;;;;;;7.45;2.62;;;;;;;7.91;90.62;99795.31;1786511;80;21126;-51
2021/01/24 08:44:28;;;;;;;0.65;0.45;;;;;;;7.93;90.54;99784.12;1762625;80;21130;-51
2021/01/24 08:47:03;;;;;;;0.17;0.17;;;;;;;7.93;90.46;99775.41;1735337;82;21114;-51
2021/01/24 08:49:31;;;;;;;1.55;0.65;;;;;;;8.00;89.96;99779.76;1786228;80;21161;-51
2021/01/24 08:52:02;;;;;;;0.28;0.28;;;;;;;8.07;89.65;99779.72;1743932;81;21144;-50
2021/01/24 08:54:32;;;;;;;1.80;1.07;;;;;;;8.11;89.50;99776.72;1770921;80;21135;-51
2021/01/24 08:57:12;;;;;;;0.80;0.60;;;;;;;8.15;89.16;99775.05;1771070;80;21571;-51
2021/01/24 09:00:07;;;;;;;1.50;1.40;;;;;;;8.20;89.00;99786.46;1782422;78;22355;-51
2021/01/24 09:02:37;;;;;;;0.62;0.60;;;;;;;8.23;88.28;99786.45;1786357;80;21129;-51
2021/01/24 09:05:10;;;;;;;0.30;0.15;;;;;;;8.24;88.38;99790.81;1786401;78;21126;-50
2021/01/24 09:07:46;;;;;;;0.00;0.00;;;;;;;8.25;87.98;99777.46;1786458;80;21413;-50
2021/01/24 09:10:33;;;;;;;0.50;0.47;;;;;;;8.29;88.05;99798.95;1783362;78;21169;-50
2021/01/24 09:13:02;;;;;;;0.90;0.85;;;;;;;8.32;87.97;99791.03;1755489;81;21381;-51
2021/01/24 09:15:31;;;;;;;0.70;0.70;;;;;;;8.35;87.54;99794.55;1755397;80;21151;-51
2021/01/24 09:17:59;;;;;;;0.75;0.33;;;;;;;8.40;87.53;99788.29;1755356;81;21163;-51
2021/01/24 09:20:28;;;;;;;2.30;0.72;;;;;;;8.47;87.04;99790.16;1782622;78;21469;-51
2021/01/24 09:22:56;;;;;;;12.63;2.67;;;;;;;8.52;87.12;99786.59;1786573;80;21105;-50
2021/01/24 09:25:23;;;;;;;1.60;1.02;;;;;;;8.56;86.93;99783.03;1753246;81;21109;-51
2021/01/24 09:27:50;;;;;;;2.17;1.45;;;;;;;8.64;86.80;99776.72;1738639;80;21213;-51
2021/01/24 09:30:18;;;;;;;0.20;0.20;;;;;;;8.73;86.58;99776.36;1724258;82;21549;-51
2021/01/24 09:32:46;;;;;;;5.45;0.65;;;;;;;8.80;86.27;99783.67;1724324;83;21561;-51
2021/01/24 09:35:13;;;;;;;3.70;1.05;;;;;;;8.88;86.07;99777.64;1724167;81;21425;-51
2021/01/24 09:37:41;;;;;;;0.82;0.82;;;;;;;8.95;86.03;99762.30;1721774;83;21132;-51
2021/01/24 09:40:09;;;;;;;0.70;0.70;;;;;;;9.03;85.03;99773.42;1724305;81;21050;-51
2021/01/24 09:42:37;;;;;;;1.00;0.98;;;;;;;9.06;84.86;99764.41;1732339;82;21121;-51
2021/01/24 09:45:06;;;;;;;0.72;0.72;;;;;;;9.10;84.93;99759.47;1732513;81;21490;-51
2021/01/24 09:47:35;;;;;;;3.45;0.42;;;;;;;9.14;84.77;99750.16;1732414;82;21166;-51
2021/01/24 09:50:05;;;;;;;1.80;1.65;;;;;;;9.19;84.46;99741.93;1732330;81;21145;-51
2021/01/24 09:52:33;;;;;;;0.47;0.47;;;;;;;9.22;84.34;99741.35;1732241;82;21133;-51
2021/01/24 09:55:00;;;;;;;0.70;0.50;;;;;;;9.25;83.93;99749.78;1725475;80;21129;-51
2021/01/24 09:57:28;;;;;;;0.53;0.53;;;;;;;9.28;83.77;99747.03;1740489;81;21158;-51
2021/01/24 09:59:55;;;;;;;2.00;1.72;;;;;;;9.28;83.44;99729.31;1746674;81;21151;-51
2021/01/24 10:02:22;;;;;;;2.10;0.80;;;;;;;9.31;83.70;99732.01;1721948;83;21137;-51
2021/01/24 10:04:50;;;;;;;1.22;0.95;;;;;;;9.38;83.80;99733.29;1719175;81;21131;-52
2021/01/24 10:07:17;;;;;;;1.07;1.02;;;;;;;9.45;83.41;99728.86;1723544;83;21235;-50
2021/01/24 10:09:46;;;;;;;0.20;0.20;;;;;;;9.50;83.17;99728.00;1722635;82;21130;-53
2021/01/24 10:12:13;;;;;;;0.45;0.45;;;;;;;9.55;83.13;99732.03;1732339;82;21158;-50
2021/01/24 10:14:41;;;;;;;0.30;0.30;;;;;;;9.58;82.87;99720.53;1732025;82;21122;-50
2021/01/24 10:17:09;;;;;;;0.05;0.05;;;;;;;9.59;82.67;99716.70;1708633;83;21158;-51
2021/01/24 10:19:36;;;;;;;0.88;0.60;;;;;;;9.59;82.56;99709.31;1723725;81;21593;-50
2021/01/24 10:22:03;;;;;;;0.00;0.00;;;;;;;9.62;82.71;99714.77;1732248;82;21464;-51
2021/01/24 10:24:31;;;;;;;0.20;0.20;;;;;;;9.66;82.62;99715.23;1731922;81;21161;-51
2021/01/24 10:26:58;;;;;;;1.37;1.22;;;;;;;9.70;82.37;99704.57;1725972;82;21217;-51
2021/01/24 10:29:27;;;;;;;5.47;1.12;;;;;;;9.76;82.14;99702.58;1707962;82;21199;-51
2021/01/24 10:31:55;;;;;;;0.20;0.20;;;;;;;9.80;82.25;99705.00;1732425;82;21169;-51
2021/01/24 10:34:23;;;;;;;1.35;0.98;;;;;;;9.82;82.11;99706.89;1740847;81;21520;-51
2021/01/24 10:36:50;;;;;;;0.40;0.40;;;;;;;9.86;82.05;99699.16;1734678;82;21140;-51
2021/01/24 10:39:18;;;;;;;0.20;0.20;;;;;;;9.93;81.65;99702.91;1739657;81;21106;-51
2021/01/24 10:41:45;;;;;;;0.62;0.55;;;;;;;9.99;81.24;99699.55;1733172;82;21150;-51
2021/01/24 10:44:14;;;;;;;0.47;0.40;;;;;;;10.05;81.33;99701.92;1712076;82;21159;-51
2021/01/24 10:46:42;;;;;;;1.05;0.53;;;;;;;10.10;80.81;99701.84;1715430;82;21134;-51
2021/01/24 10:49:10;;;;;;;0.23;0.23;;;;;;;10.15;81.01;99691.41;1713566;82;21207;-51
2021/01/24 10:51:38;;;;;;;0.25;0.25;;;;;;;10.19;80.93;99692.46;1707170;84;21156;-51
2021/01/24 10:54:06;;;;;;;0.20;0.20;;;;;;;10.19;81.13;99685.63;1707051;84;21191;-51
2021/01/24 10:56:33;;;;;;;0.60;0.37;;;;;;;10.22;80.95;99680.94;1678701;85;21586;-52
2021/01/24 10:59:00;;;;;;;1.37;0.90;;;;;;;10.20;80.89;99661.87;1710661;83;21175;-50
2021/01/24 11:01:28;;;;;;;0.15;0.15;;;;;;;10.24;81.10;99680.09;1710668;83;21152;-51
2021/01/24 11:03:55;;;;;;;0.98;0.20;;;;;;;10.29;80.87;99671.86;1710084;83;21173;-51
2021/01/24 11:06:23;;;;;;;5.62;2.17;;;;;;;10.36;81.06;99669.29;1736321;82;21145;-51
2021/01/24 11:08:51;;;;;;;2.35;1.87;;;;;;;10.42;80.96;99667.56;1740722;81;21279;-52
2021/01/24 11:11:20;;;;;;;0.33;0.20;;;;;;;10.51;80.78;99671.80;1740862;82;21148;-52
2021/01/24 11:13:47;;;;;;;0.30;0.20;;;;;;;10.56;79.72;99664.89;1740715;81;21126;-52
2021/01/24 11:16:15;;;;;;;0.80;0.20;;;;;;;10.61;79.41;99670.27;1740772;82;21149;-52
2021/01/24 11:18:43;;;;;;;3.50;2.72;;;;;;;10.65;79.46;99668.55;1740763;81;21148;-52
2021/01/24 11:21:10;;;;;;;3.83;1.15;;;;;;;10.70;79.30;99671.19;1718904;82;21496;-52
2021/01/24 11:23:37;;;;;;;0.33;0.33;;;;;;;10.75;79.29;99667.56;1677214;85;21607;-51
2021/01/24 11:26:05;;;;;;;1.92;1.30;;;;;;;10.77;78.64;99668.08;1736360;82;21093;-52
2021/01/24 11:28:32;;;;;;;0.10;0.10;;;;;;;10.73;78.60;99665.14;1720447;81;21257;-51
2021/01/24 11:30:59;;;;;;;2.35;2.12;;;;;;;10.71;78.71;99661.09;1781692;80;21158;-52
2021/01/24 11:33:26;;;;;;;0.35;0.35;;;;;;;10.69;78.76;99662.75;1781592;80;21131;-51
2021/01/24 11:35:56;;;;;;;1.37;1.10;;;;;;;10.68;78.81;99667.97;1781733;80;21122;-51
2021/01/24 11:38:23;;;;;;;3.50;0.95;;;;;;;10.66;78.84;99655.16;1781935;80;21118;-51
2021/01/24 11:40:51;;;;;;;0.33;0.30;;;;;;;10.65;78.88;99661.71;1722222;83;21115;-51
2021/01/24 11:43:19;;;;;;;0.30;0.25;;;;;;;10.61;79.06;99645.68;1721417;81;21160;-51
2021/01/24 11:45:46;;;;;;;1.32;1.22;;;;;;;10.61;79.21;99645.68;1720220;83;21337;-52
2021/01/24 11:48:13;;;;;;;0.88;0.85;;;;;;;10.59;79.33;99649.82;1720408;83;21132;-51